createdAt,value
2022-08-31T00:56:18.364Z,10.30
2022-08-31T00:58:51.340Z,14.73
2022-08-31T01:01:24.262Z,9.90
2022-08-31T01:03:53.189Z,19.53
2022-08-31T01:06:22.651Z,13.63
2022-08-31T01:08:52.045Z,8.87
2022-08-31T01:11:22.737Z,12.30
2022-08-31T01:13:51.788Z,8.20
2022-08-31T01:16:22.816Z,12.30
2022-08-31T01:18:53.774Z,11.70
2022-08-31T01:21:27.582Z,11.27
2022-08-31T01:23:58.798Z,10.00
2022-08-31T01:26:29.199Z,10.43
2022-08-31T01:29:00.746Z,11.93
2022-08-31T01:31:31.850Z,12.03
2022-08-31T01:34:00.708Z,11.10
2022-08-31T01:36:30.249Z,13.70
2022-08-31T01:39:00.415Z,11.17
2022-08-31T01:41:29.476Z,13.80
2022-08-31T01:43:58.364Z,10.97
2022-08-31T01:46:27.326Z,11.30
2022-08-31T01:48:56.108Z,15.23
2022-08-31T01:51:24.991Z,12.13
2022-08-31T01:53:54.528Z,14.70
2022-08-31T01:56:28.099Z,14.87
2022-08-31T01:58:58.771Z,12.50
2022-08-31T02:01:50.593Z,12.20
2022-08-31T02:04:20.152Z,10.53
2022-08-31T02:06:50.157Z,11.70
2022-08-31T02:09:20.961Z,10.63
2022-08-31T02:11:51.413Z,10.23
2022-08-31T02:14:20.688Z,11.93
2022-08-31T02:16:50.129Z,13.80
2022-08-31T02:19:19.327Z,10.63
2022-08-31T02:21:48.414Z,13.10
2022-08-31T02:24:17.225Z,10.57
2022-08-31T02:26:47.689Z,13.37
2022-08-31T02:29:19.532Z,13.60
2022-08-31T02:31:48.650Z,13.27
2022-08-31T02:34:18.168Z,11.50
2022-08-31T02:36:47.168Z,13.40
2022-08-31T02:39:15.912Z,8.70
2022-08-31T02:41:45.995Z,17.97
2022-08-31T02:44:14.881Z,15.23
2022-08-31T02:46:45.435Z,24.13
2022-08-31T02:49:36.589Z,13.00
2022-08-31T02:52:05.480Z,11.90
2022-08-31T02:54:34.227Z,17.70
2022-08-31T02:57:03.725Z,13.23
2022-08-31T02:59:32.338Z,11.53
2022-08-31T03:02:02.916Z,12.63
2022-08-31T03:04:32.320Z,14.87
2022-08-31T03:07:00.901Z,11.70
2022-08-31T03:09:31.766Z,11.83
2022-08-31T03:12:00.708Z,12.07
2022-08-31T03:14:29.669Z,16.23
2022-08-31T03:16:58.342Z,12.30
2022-08-31T03:19:28.761Z,12.60
2022-08-31T03:21:58.504Z,15.37
2022-08-31T03:24:28.006Z,13.97
2022-08-31T03:26:57.693Z,14.77
2022-08-31T03:29:26.825Z,12.33
2022-08-31T03:32:14.486Z,12.43
2022-08-31T03:34:47.222Z,13.90
2022-08-31T03:37:15.965Z,12.83
2022-08-31T03:39:45.106Z,14.33
2022-08-31T03:42:13.872Z,16.97
2022-08-31T03:44:42.743Z,11.57
2022-08-31T03:47:21.213Z,11.97
2022-08-31T03:49:52.730Z,13.13
2022-08-31T03:52:25.578Z,15.73
2022-08-31T03:55:10.874Z,16.80
2022-08-31T03:57:40.913Z,16.07
2022-08-31T04:00:11.161Z,16.87
2022-08-31T04:02:42.872Z,13.53
2022-08-31T04:05:48.230Z,11.93
2022-08-31T04:08:40.140Z,10.43
2022-08-31T04:11:44.475Z,10.83
2022-08-31T04:14:33.696Z,11.80
2022-08-31T04:17:21.129Z,12.00
2022-08-31T04:19:57.482Z,16.03
2022-08-31T04:22:46.181Z,13.43
2022-08-31T04:25:30.044Z,10.17
2022-08-31T04:27:58.935Z,11.80
2022-08-31T04:30:29.028Z,10.83
2022-08-31T04:32:58.145Z,11.33
2022-08-31T04:35:26.873Z,12.90
2022-08-31T04:37:57.422Z,12.67
2022-08-31T04:40:26.478Z,11.97
2022-08-31T04:42:56.291Z,17.20
2022-08-31T04:45:26.055Z,29.97
2022-08-31T04:47:55.142Z,14.70
2022-08-31T04:50:23.745Z,17.50
2022-08-31T04:53:11.238Z,11.57
2022-08-31T04:55:41.282Z,12.10
2022-08-31T04:58:12.895Z,15.77
2022-08-31T05:00:44.390Z,14.97
2022-08-31T05:03:24.671Z,13.97
2022-08-31T05:05:56.924Z,16.77
2022-08-31T05:08:27.831Z,15.73
2022-08-31T05:10:56.728Z,11.70
2022-08-31T05:13:25.857Z,10.77
2022-08-31T05:15:56.154Z,16.00
2022-08-31T05:18:26.354Z,14.80
2022-08-31T05:21:10.035Z,14.27
2022-08-31T05:23:40.648Z,13.70
2022-08-31T05:26:10.149Z,19.93
2022-08-31T05:28:42.092Z,14.20
2022-08-31T05:31:11.292Z,13.43
2022-08-31T05:33:46.226Z,12.93
2022-08-31T05:36:17.054Z,13.60
2022-08-31T05:38:47.595Z,14.23
2022-08-31T05:41:17.984Z,14.07
2022-08-31T05:43:47.172Z,13.77
2022-08-31T05:46:17.824Z,15.23
2022-08-31T05:48:49.166Z,15.50
2022-08-31T05:51:20.057Z,14.90
2022-08-31T05:53:50.136Z,17.63
2022-08-31T05:56:20.522Z,14.70
2022-08-31T05:58:51.149Z,17.80
2022-08-31T06:01:21.863Z,17.70
2022-08-31T06:04:03.372Z,17.10
2022-08-31T06:06:32.535Z,14.13
2022-08-31T06:09:05.909Z,14.20
2022-08-31T06:11:35.750Z,13.13
2022-08-31T06:14:05.868Z,15.10
2022-08-31T06:16:37.790Z,16.90
2022-08-31T06:19:07.172Z,19.87
2022-08-31T06:21:39.313Z,12.70
2022-08-31T06:24:24.473Z,12.50
2022-08-31T06:26:58.303Z,17.70
2022-08-31T06:29:35.530Z,15.60
2022-08-31T06:32:08.209Z,16.33
2022-08-31T06:34:40.907Z,14.70
2022-08-31T06:37:18.304Z,14.47
2022-08-31T06:40:08.771Z,14.90
2022-08-31T06:42:47.802Z,13.40
2022-08-31T06:45:31.046Z,14.93
2022-08-31T06:48:19.048Z,15.83
2022-08-31T06:50:47.821Z,14.10
2022-08-31T06:53:16.509Z,11.30
2022-08-31T06:56:07.185Z,12.90
2022-08-31T06:59:08.886Z,13.10
2022-08-31T07:02:04.174Z,19.07
2022-08-31T07:04:34.836Z,12.70
2022-08-31T07:07:03.925Z,11.93
2022-08-31T07:09:33.096Z,13.73
2022-08-31T07:12:05.803Z,15.37
2022-08-31T07:14:35.792Z,9.83
2022-08-31T07:17:05.103Z,15.17
2022-08-31T07:19:34.999Z,10.67
2022-08-31T07:22:07.411Z,12.97
2022-08-31T07:24:36.550Z,15.10
2022-08-31T07:27:11.878Z,12.33
2022-08-31T07:29:49.065Z,14.40
2022-08-31T07:32:19.757Z,14.53
2022-08-31T07:34:58.591Z,12.13
2022-08-31T07:37:50.525Z,10.83
2022-08-31T07:40:50.505Z,11.20
2022-08-31T07:43:23.972Z,8.50
2022-08-31T07:45:53.363Z,11.00
2022-08-31T07:48:28.740Z,12.07
2022-08-31T07:51:24.292Z,12.53
2022-08-31T07:54:10.229Z,11.17
2022-08-31T07:56:43.367Z,11.20
2022-08-31T07:59:15.906Z,10.07
2022-08-31T08:01:47.749Z,10.63
2022-08-31T08:04:25.096Z,10.53
2022-08-31T08:07:09.823Z,8.63
2022-08-31T08:09:55.664Z,9.60
2022-08-31T08:12:43.087Z,9.70
2022-08-31T08:15:26.039Z,8.17
2022-08-31T08:18:17.009Z,10.97
2022-08-31T08:20:52.272Z,9.97
2022-08-31T08:23:28.149Z,13.47
2022-08-31T08:26:28.653Z,9.70
2022-08-31T08:29:06.925Z,9.30
2022-08-31T08:31:40.879Z,11.37
2022-08-31T08:34:12.866Z,8.77
2022-08-31T08:36:41.779Z,11.60
2022-08-31T08:39:13.010Z,9.00
2022-08-31T08:41:49.952Z,9.10
2022-08-31T08:44:20.189Z,8.17
2022-08-31T08:46:55.632Z,8.60
2022-08-31T08:49:36.275Z,7.27
2022-08-31T08:52:10.957Z,12.50
2022-08-31T08:54:42.600Z,8.53
2022-08-31T08:57:14.778Z,7.07
2022-08-31T08:59:45.226Z,7.30
2022-08-31T09:02:17.053Z,10.60
2022-08-31T09:04:50.870Z,9.63
2022-08-31T09:07:45.606Z,7.47
2022-08-31T09:10:20.105Z,9.33
2022-08-31T09:15:44.970Z,6.83
2022-08-31T09:18:24.868Z,8.13
2022-08-31T09:21:06.030Z,11.50
2022-08-31T09:23:37.869Z,8.40
2022-08-31T09:26:08.517Z,7.00
2022-08-31T09:28:56.890Z,7.33
2022-08-31T09:31:34.764Z,9.07
2022-08-31T09:34:03.928Z,8.47
2022-08-31T09:36:41.362Z,8.30
2022-08-31T09:39:21.571Z,6.10
2022-08-31T09:41:51.042Z,7.77
2022-08-31T09:44:23.476Z,7.23
2022-08-31T09:46:56.571Z,6.57
2022-08-31T09:49:27.407Z,6.30
2022-08-31T09:52:16.255Z,7.03
2022-08-31T09:55:12.731Z,5.43
2022-08-31T09:57:55.126Z,7.50
2022-08-31T11:10:05.809Z,5.15
2022-08-31T11:12:40.917Z,5.35
2022-08-31T11:15:28.902Z,7.00
2022-08-31T11:18:13.641Z,8.02
2022-08-31T11:20:56.898Z,7.83
2022-08-31T11:23:35.813Z,4.43
2022-08-31T11:26:28.749Z,9.93
2022-08-31T11:28:59.685Z,4.90
2022-08-31T11:31:31.683Z,6.73
2022-08-31T11:34:16.101Z,5.23
2022-08-31T11:36:50.468Z,6.00
2022-08-31T11:39:41.394Z,4.70
2022-08-31T11:42:28.050Z,6.97
2022-08-31T11:45:06.921Z,4.27
2022-08-31T11:47:37.201Z,5.00
2022-08-31T11:50:13.774Z,4.10
2022-08-31T11:52:48.343Z,8.53
2022-08-31T11:55:25.434Z,4.00
2022-08-31T11:58:20.944Z,5.60
2022-08-31T12:00:58.797Z,4.00
2022-08-31T12:03:50.699Z,4.87
2022-08-31T12:06:39.435Z,5.60
2022-08-31T12:09:17.299Z,4.43
2022-08-31T12:11:48.932Z,5.50
2022-08-31T12:14:23.079Z,5.93
2022-08-31T12:17:00.517Z,6.63
2022-08-31T12:20:01.550Z,9.00
2022-08-31T12:23:30.302Z,4.88
2022-08-31T12:26:06.404Z,8.60
2022-08-31T12:28:44.850Z,5.60
2022-08-31T12:31:16.998Z,8.13
2022-08-31T12:33:50.861Z,5.78
2022-08-31T12:36:20.769Z,4.10
2022-08-31T12:39:06.253Z,4.80
2022-08-31T12:41:39.909Z,4.40
2022-08-31T12:44:14.185Z,5.70
2022-08-31T12:46:52.781Z,5.22
2022-08-31T12:49:44.808Z,7.28
2022-08-31T12:52:21.361Z,6.43
2022-08-31T12:55:09.427Z,6.32
2022-08-31T12:57:50.366Z,5.68
2022-08-31T13:00:26.302Z,5.75
2022-08-31T13:02:56.100Z,4.60
2022-08-31T13:05:26.304Z,4.05
2022-08-31T13:07:57.032Z,4.50
2022-08-31T13:10:27.732Z,5.45
2022-08-31T13:12:57.429Z,5.60
2022-08-31T13:15:27.474Z,5.47
2022-08-31T13:17:56.538Z,6.00
2022-08-31T13:20:28.326Z,4.60
2022-08-31T13:23:02.367Z,5.55
2022-08-31T13:25:38.709Z,4.00
2022-08-31T13:28:08.512Z,7.88
2022-08-31T13:30:39.910Z,5.55
2022-08-31T13:33:23.316Z,4.97
2022-08-31T13:35:52.750Z,5.30
2022-08-31T13:41:17.259Z,7.70
2022-08-31T13:43:58.623Z,7.00
2022-08-31T13:46:41.823Z,4.60
2022-08-31T13:49:22.269Z,4.23
2022-08-31T13:51:53.403Z,4.23
2022-08-31T13:56:58.713Z,4.82
2022-08-31T13:59:30.239Z,6.32
2022-08-31T14:01:59.752Z,3.57
2022-08-31T14:04:43.325Z,4.60
2022-08-31T14:49:46.028Z,3.67
2022-08-31T14:52:16.046Z,4.77
2022-08-31T14:54:44.897Z,4.37
2022-08-31T14:57:14.653Z,5.80
2022-08-31T14:59:46.794Z,4.87
2022-08-31T15:02:21.127Z,4.17
2022-08-31T15:17:20.469Z,4.60
2022-08-31T15:19:55.349Z,5.28
2022-08-31T15:22:26.194Z,3.90
2022-08-31T15:24:55.354Z,4.00
2022-08-31T15:27:28.591Z,5.30
2022-08-31T15:30:04.478Z,4.85
2022-08-31T15:32:36.269Z,4.55
2022-08-31T15:35:04.842Z,3.40
2022-08-31T15:37:33.392Z,3.22
2022-08-31T15:40:03.801Z,3.30
2022-08-31T15:42:39.515Z,4.63
2022-08-31T15:45:09.136Z,5.30
2022-08-31T15:47:58.957Z,5.05
2022-08-31T15:50:32.141Z,6.28
2022-08-31T15:53:08.045Z,3.92
2022-08-31T15:55:41.155Z,4.88
2022-08-31T15:58:10.614Z,5.30
2022-08-31T16:00:41.964Z,4.63
2022-08-31T16:03:12.859Z,4.00
2022-08-31T16:05:43.572Z,4.35
2022-08-31T16:08:13.356Z,3.60
2022-08-31T16:10:46.853Z,4.30
2022-08-31T16:13:16.381Z,3.90
2022-08-31T16:15:51.200Z,4.20
2022-08-31T16:18:22.474Z,4.03
2022-08-31T16:20:52.079Z,6.18
2022-08-31T16:23:21.440Z,4.60
2022-08-31T16:25:50.327Z,3.47
2022-08-31T16:28:20.811Z,4.82
2022-08-31T16:30:51.415Z,5.40
2022-08-31T16:33:20.657Z,3.80
2022-08-31T16:35:51.798Z,4.37
2022-08-31T16:38:20.940Z,3.60
2022-08-31T16:40:50.031Z,3.60
2022-08-31T16:43:18.861Z,4.32
2022-08-31T16:45:47.929Z,4.47
2022-08-31T16:48:34.501Z,4.10
2022-08-31T16:51:04.930Z,6.10
2022-08-31T16:53:33.670Z,10.60
2022-08-31T16:56:04.437Z,4.03
2022-08-31T16:58:51.331Z,4.85
2022-08-31T17:01:23.252Z,4.88
2022-08-31T17:04:00.117Z,9.00
2022-08-31T17:06:33.190Z,5.57
2022-08-31T17:09:03.638Z,4.97
2022-08-31T17:11:35.611Z,5.77
2022-08-31T17:14:07.147Z,5.63
2022-08-31T17:16:37.332Z,5.63
2022-08-31T17:19:08.471Z,4.90
2022-08-31T17:21:49.061Z,5.37
2022-08-31T17:24:19.263Z,5.00
2022-08-31T17:26:48.364Z,4.97
2022-08-31T17:29:17.108Z,6.10
2022-08-31T17:31:46.948Z,7.57
2022-08-31T17:34:16.973Z,5.82
2022-08-31T17:36:48.513Z,3.73
2022-08-31T17:39:18.067Z,4.90
2022-08-31T17:41:48.924Z,3.40
2022-08-31T17:44:19.104Z,3.70
2022-08-31T17:46:49.792Z,3.97
2022-08-31T17:49:19.227Z,3.80
2022-08-31T17:51:50.266Z,6.07
2022-08-31T17:54:20.388Z,3.90
2022-08-31T17:59:20.696Z,3.40
2022-08-31T18:01:50.918Z,3.90
2022-08-31T18:04:20.658Z,3.57
2022-08-31T18:06:53.455Z,6.37
2022-08-31T18:09:24.075Z,6.30
2022-08-31T18:11:53.668Z,5.70
2022-08-31T18:14:23.551Z,5.40
2022-08-31T18:16:53.545Z,7.10
2022-08-31T18:19:25.575Z,5.13
2022-08-31T18:21:58.978Z,5.50
2022-08-31T18:24:28.485Z,6.30
2022-08-31T18:26:58.928Z,5.60
2022-08-31T18:29:28.426Z,4.20
2022-08-31T18:32:04.176Z,6.97
2022-08-31T18:34:45.955Z,6.70
2022-08-31T18:37:26.110Z,4.17
2022-08-31T18:40:12.801Z,4.85
2022-08-31T18:42:59.250Z,4.63
2022-08-31T18:45:28.334Z,4.68
2022-08-31T18:50:51.240Z,3.80
2022-08-31T18:53:29.045Z,5.70
2022-08-31T18:55:59.955Z,6.30
2022-08-31T18:58:30.121Z,3.97
2022-08-31T19:00:59.457Z,4.70
2022-08-31T19:03:29.227Z,6.00
2022-08-31T19:05:58.487Z,4.35
2022-08-31T19:08:29.296Z,5.03
2022-08-31T19:10:58.983Z,5.78
2022-08-31T19:13:28.782Z,4.22
2022-08-31T19:16:02.155Z,4.30
2022-08-31T19:18:35.171Z,4.30
2022-08-31T19:21:13.433Z,6.07
2022-08-31T19:23:44.175Z,6.13
2022-08-31T19:26:19.039Z,5.33
2022-08-31T19:28:49.613Z,5.63
2022-08-31T19:31:20.565Z,6.85
2022-08-31T19:33:56.524Z,4.75
2022-08-31T19:36:27.596Z,4.80
2022-08-31T19:38:59.674Z,4.60
2022-08-31T19:41:29.704Z,6.95
2022-08-31T19:44:09.020Z,6.10
2022-08-31T19:46:39.149Z,4.68
2022-08-31T19:49:11.146Z,5.05
2022-08-31T19:51:41.044Z,4.70
2022-08-31T19:54:12.941Z,6.00
2022-08-31T19:56:43.027Z,4.18
2022-08-31T19:59:13.597Z,4.90
2022-08-31T20:01:43.289Z,4.90
2022-08-31T20:04:16.669Z,4.30
2022-08-31T20:06:46.311Z,4.53
2022-08-31T20:24:13.481Z,5.10
2022-08-31T20:26:47.402Z,6.00
2022-08-31T20:29:21.661Z,4.83
2022-08-31T20:31:51.769Z,5.83
2022-08-31T20:34:23.009Z,6.07
2022-08-31T20:36:58.543Z,5.97
2022-08-31T20:39:31.869Z,4.85
2022-08-31T20:42:03.370Z,5.30
2022-08-31T20:44:33.751Z,5.43
2022-08-31T20:47:21.276Z,6.68
2022-08-31T20:49:53.588Z,5.70
2022-08-31T20:52:23.470Z,7.10
2022-08-31T20:55:01.455Z,5.80
2022-08-31T20:57:31.709Z,5.55
2022-08-31T21:00:03.718Z,7.15
2022-08-31T21:02:34.463Z,6.37
2022-08-31T21:05:27.226Z,7.70
2022-08-31T21:07:53.186Z,5.82
2022-08-31T21:10:32.578Z,6.30
2022-08-31T21:13:07.115Z,4.93
2022-08-31T21:15:35.817Z,4.20
2022-08-31T21:18:04.444Z,4.73
2022-08-31T21:20:33.789Z,5.30
2022-08-31T21:23:02.367Z,7.93
2022-08-31T21:25:32.425Z,7.57
2022-08-31T21:28:02.792Z,5.53
2022-08-31T21:30:31.448Z,4.20
2022-08-31T21:33:00.246Z,4.97
2022-08-31T21:35:28.887Z,7.13
2022-08-31T21:37:58.922Z,6.87
2022-08-31T21:40:28.478Z,5.47
2022-08-31T21:42:58.479Z,7.07
2022-08-31T21:45:27.155Z,7.23
2022-08-31T21:47:55.935Z,4.67
2022-08-31T21:50:24.657Z,4.60
2022-08-31T21:52:58.357Z,5.00
2022-08-31T21:55:28.875Z,6.73
2022-08-31T21:57:59.261Z,4.90
2022-08-31T22:00:29.507Z,5.60
2022-08-31T22:02:58.435Z,8.93
2022-08-31T22:05:32.927Z,8.17
2022-08-31T22:08:01.548Z,6.00
2022-08-31T22:10:32.919Z,4.77
2022-08-31T22:13:05.758Z,5.30
2022-08-31T22:15:37.074Z,6.70
2022-08-31T22:18:46.058Z,8.53
2022-08-31T22:20:55.511Z,6.33
2022-08-31T22:23:26.197Z,9.00
2022-08-31T22:25:55.529Z,7.80
2022-08-31T22:28:27.736Z,5.90
2022-08-31T22:30:57.083Z,5.07
2022-08-31T22:33:26.159Z,6.27
2022-08-31T22:35:55.369Z,5.83
2022-08-31T22:38:25.443Z,5.00
2022-08-31T22:40:55.025Z,11.43
2022-08-31T22:43:24.091Z,5.77
2022-08-31T22:45:54.894Z,6.23
2022-08-31T22:48:23.524Z,5.90
2022-08-31T22:50:52.063Z,8.30
2022-08-31T22:53:20.867Z,5.43
2022-08-31T22:55:49.571Z,6.30
2022-08-31T22:58:18.335Z,7.77
2022-08-31T23:00:48.176Z,5.73
2022-08-31T23:03:18.220Z,7.50
2022-08-31T23:05:48.037Z,7.17
2022-08-31T23:08:16.832Z,6.43
2022-08-31T23:10:46.891Z,6.27
2022-08-31T23:13:15.592Z,5.30
2022-08-31T23:15:44.186Z,5.07
2022-08-31T23:18:13.380Z,8.47
2022-08-31T23:20:43.352Z,5.17
2022-08-31T23:23:12.116Z,5.03
2022-08-31T23:25:41.025Z,5.20
2022-08-31T23:28:09.739Z,7.50
2022-08-31T23:30:40.132Z,5.30
2022-08-31T23:33:08.800Z,7.93
2022-08-31T23:35:37.311Z,5.70
2022-08-31T23:38:07.363Z,5.07
2022-08-31T23:40:35.971Z,6.40
2022-08-31T23:43:04.714Z,4.87
2022-08-31T23:45:33.470Z,4.90
2022-08-31T23:48:02.492Z,7.10
2022-08-31T23:50:31.056Z,5.70
2022-08-31T23:52:59.680Z,4.50
2022-08-31T23:55:31.191Z,4.83
2022-08-31T23:57:59.819Z,5.10
